Time;durP1;ratioP1;P1;durP2;ratioP2;P2;SDS_P1;SDS_P2;PMS_P1;PMS_P2;Temp;Humidity;BMP_temperature;BMP_pressure;BME280_temperature;BME280_humidity;BME280_pressure;Samples;Min_cycle;Max_cycle;Signal;HPM_P1;HPM_P2
2021/04/23 00:00:44;;;;;;;14.07;4.97;;;12.00;66.90;;;;;;5068318;28;20434;-74
2021/04/23 00:03:19;;;;;;;16.80;4.97;;;12.00;67.10;;;;;;5072667;28;20518;-74
2021/04/23 00:05:47;;;;;;;15.10;5.00;;;11.90;67.00;;;;;;5067821;28;20423;-75
2021/04/23 00:08:14;;;;;;;16.48;5.60;;;11.90;67.10;;;;;;5084792;28;20428;-74
2021/04/23 00:10:42;;;;;;;14.48;5.10;;;11.90;67.10;;;;;;5073801;28;20427;-74
2021/04/23 00:13:10;;;;;;;15.35;5.25;;;11.90;67.60;;;;;;5068570;28;20434;-74
2021/04/23 00:15:36;;;;;;;13.57;5.35;;;11.80;67.70;;;;;;5075385;28;20422;-76
2021/04/23 00:18:03;;;;;;;14.18;5.10;;;11.80;67.80;;;;;;5073256;28;20913;-74
2021/04/23 00:20:30;;;;;;;13.23;5.10;;;11.70;67.80;;;;;;5067790;28;20430;-73
2021/04/23 00:22:58;;;;;;;17.73;6.10;;;11.70;68.00;;;;;;5074116;28;20433;-73
2021/04/23 00:25:25;;;;;;;16.98;5.35;;;11.70;68.20;;;;;;5065623;28;20431;-74
2021/04/23 00:27:53;;;;;;;13.97;5.50;;;11.60;68.00;;;;;;5076742;28;20479;-73
2021/04/23 00:30:24;;;;;;;17.30;5.40;;;11.60;68.60;;;;;;5075595;28;20485;-75
2021/04/23 00:32:54;;;;;;;12.67;5.00;;;11.50;67.70;;;;;;5068066;28;20457;-74
2021/04/23 00:35:23;;;;;;;16.92;5.53;;;11.50;67.70;;;;;;5070784;28;20514;-74
2021/04/23 00:37:51;;;;;;;14.27;5.20;;;11.50;67.90;;;;;;5067848;28;20827;-74
2021/04/23 00:40:21;;;;;;;15.35;5.00;;;11.50;68.20;;;;;;5068090;28;20518;-75
2021/04/23 00:42:47;;;;;;;14.85;5.03;;;11.40;68.40;;;;;;5067437;28;20756;-75
2021/04/23 00:45:15;;;;;;;12.87;5.13;;;11.40;68.50;;;;;;5075542;28;20432;-75
2021/04/23 00:47:45;;;;;;;14.80;4.88;;;11.30;68.50;;;;;;5069004;28;20925;-74
2021/04/23 00:50:13;;;;;;;13.43;4.63;;;11.30;68.80;;;;;;5067664;28;20423;-75
2021/04/23 00:52:40;;;;;;;16.70;5.13;;;11.30;68.50;;;;;;5068485;28;20423;-75
2021/04/23 00:55:08;;;;;;;14.77;4.70;;;11.30;68.90;;;;;;5068485;28;20790;-75
2021/04/23 00:57:34;;;;;;;15.55;5.10;;;11.20;68.90;;;;;;5074124;28;20431;-76
2021/04/23 01:00:00;;;;;;;14.93;4.50;;;11.20;69.10;;;;;;5072730;28;20995;-73
2021/04/23 01:02:27;;;;;;;15.30;4.80;;;11.10;69.40;;;;;;5075971;28;20905;-76
2021/04/23 01:04:54;;;;;;;18.85;4.90;;;11.10;69.60;;;;;;5071091;28;20427;-74
2021/04/23 01:07:20;;;;;;;16.05;4.95;;;11.10;69.90;;;;;;5067906;28;20419;-74
2021/04/23 01:09:47;;;;;;;12.85;4.60;;;11.00;70.00;;;;;;5069703;28;20442;-74
2021/04/23 01:12:13;;;;;;;14.38;4.68;;;11.00;70.20;;;;;;5070267;28;20426;-75
2021/04/23 01:14:40;;;;;;;15.80;4.90;;;11.00;70.00;;;;;;5070989;28;20432;-74
2021/04/23 01:17:06;;;;;;;15.07;5.80;;;11.00;69.70;;;;;;5064933;28;20427;-73
2021/04/23 01:19:33;;;;;;;17.52;5.35;;;11.00;69.40;;;;;;5066694;28;20423;-75
2021/04/23 01:22:00;;;;;;;13.27;4.97;;;11.00;69.60;;;;;;5077434;28;20421;-73
2021/04/23 01:24:27;;;;;;;10.80;4.40;;;10.90;69.80;;;;;;5070363;28;20515;-75
2021/04/23 01:26:55;;;;;;;15.52;4.60;;;11.00;69.20;;;;;;5074443;28;20427;-75
2021/04/23 01:29:24;;;;;;;15.93;4.80;;;10.90;69.00;;;;;;5068845;28;20422;-74
2021/04/23 01:31:53;;;;;;;16.20;4.77;;;10.90;69.10;;;;;;5069346;28;20915;-74
2021/04/23 01:34:25;;;;;;;14.98;4.90;;;10.90;68.90;;;;;;5064592;28;20484;-74
2021/04/23 01:36:55;;;;;;;17.48;4.97;;;10.80;68.80;;;;;;5069392;28;20521;-75
2021/04/23 01:39:24;;;;;;;13.60;4.65;;;10.80;69.40;;;;;;5071156;28;20454;-74
2021/04/23 01:41:53;;;;;;;15.18;4.82;;;10.80;70.30;;;;;;5072054;28;20415;-74
2021/04/23 01:44:20;;;;;;;15.52;4.82;;;10.70;70.60;;;;;;5064136;28;20447;-73
2021/04/23 01:46:47;;;;;;;12.95;4.57;;;10.70;70.90;;;;;;5071980;28;20787;-74
2021/04/23 01:49:16;;;;;;;17.95;4.97;;;10.70;71.10;;;;;;5074747;28;20757;-74
2021/04/23 01:51:44;;;;;;;15.38;4.65;;;10.70;71.00;;;;;;5076512;28;20860;-73
2021/04/23 01:54:11;;;;;;;12.10;4.90;;;10.60;70.90;;;;;;5065205;28;20419;-75
2021/04/23 01:56:39;;;;;;;14.20;5.25;;;10.60;71.30;;;;;;5071385;28;20435;-74
2021/04/23 01:59:06;;;;;;;12.25;5.07;;;10.60;71.70;;;;;;5071452;28;20470;-74
2021/04/23 02:01:33;;;;;;;13.50;4.88;;;10.50;71.50;;;;;;5071532;28;20434;-74
2021/04/23 02:04:01;;;;;;;16.40;5.27;;;10.50;71.10;;;;;;5064358;28;20431;-76
2021/04/23 02:06:28;;;;;;;14.95;5.25;;;10.50;71.20;;;;;;5072891;28;20525;-74
2021/04/23 02:08:54;;;;;;;14.45;5.10;;;10.50;71.20;;;;;;5069906;28;22283;-74
2021/04/23 02:11:21;;;;;;;14.77;5.10;;;10.40;70.60;;;;;;5074651;28;20437;-73
2021/04/23 02:13:51;;;;;;;13.43;5.00;;;10.40;70.70;;;;;;5076711;28;20423;-74
2021/04/23 02:16:19;;;;;;;13.65;5.32;;;10.40;70.30;;;;;;5076059;28;20799;-74
2021/04/23 02:18:46;;;;;;;13.27;5.20;;;10.30;69.90;;;;;;5066944;28;20498;-73
2021/04/23 02:21:15;;;;;;;14.15;5.38;;;10.30;69.80;;;;;;5081993;28;20457;-75
2021/04/23 02:23:44;;;;;;;13.25;5.50;;;10.30;70.00;;;;;;5071294;28;20462;-76
2021/04/23 02:26:11;;;;;;;14.95;5.10;;;10.20;70.20;;;;;;5073638;28;20524;-73
2021/04/23 02:28:38;;;;;;;12.43;4.75;;;10.20;71.10;;;;;;5072445;28;20427;-74
2021/04/23 02:31:08;;;;;;;11.98;5.00;;;10.20;72.00;;;;;;5073987;28;20532;-74
2021/04/23 02:33:34;;;;;;;13.83;5.13;;;10.10;72.30;;;;;;5069045;28;20450;-75
2021/04/23 02:36:01;;;;;;;12.32;5.28;;;10.10;72.60;;;;;;5077395;28;20454;-74
2021/04/23 02:38:28;;;;;;;9.98;5.10;;;10.10;72.30;;;;;;5075207;28;20503;-74
2021/04/23 02:40:57;;;;;;;15.37;5.30;;;10.10;72.20;;;;;;5068544;28;20450;-76
2021/04/23 02:43:27;;;;;;;12.85;4.95;;;10.10;72.10;;;;;;5071551;28;20918;-75
2021/04/23 02:45:54;;;;;;;15.60;4.82;;;10.10;72.90;;;;;;5070980;28;20883;-76
2021/04/23 02:48:23;;;;;;;12.65;4.70;;;10.00;73.40;;;;;;5073654;28;20831;-76
2021/04/23 02:50:52;;;;;;;12.18;4.57;;;10.00;73.60;;;;;;5073917;28;20445;-76
2021/04/23 02:53:18;;;;;;;11.35;4.85;;;10.00;73.50;;;;;;5076236;28;20431;-74
2021/04/23 02:55:45;;;;;;;13.85;5.03;;;10.00;73.60;;;;;;5070595;28;20427;-74
2021/04/23 02:58:14;;;;;;;14.80;5.00;;;10.00;73.00;;;;;;5068482;28;20416;-74
2021/04/23 03:00:43;;;;;;;14.40;4.88;;;10.00;72.80;;;;;;5071288;28;20431;-75
2021/04/23 03:03:10;;;;;;;14.95;4.90;;;9.90;73.50;;;;;;5066720;28;20502;-74
2021/04/23 03:05:40;;;;;;;14.02;5.40;;;9.90;72.90;;;;;;5073902;28;20436;-74
2021/04/23 03:08:07;;;;;;;15.57;5.45;;;9.90;72.80;;;;;;5072177;28;20494;-74
2021/04/23 03:10:37;;;;;;;10.65;4.95;;;9.90;72.70;;;;;;5080290;28;20424;-74
2021/04/23 03:13:05;;;;;;;12.05;5.10;;;9.80;72.30;;;;;;5072024;28;20459;-74
2021/04/23 03:15:32;;;;;;;13.88;5.25;;;9.80;72.60;;;;;;5069788;28;20432;-74
2021/04/23 03:17:58;;;;;;;15.82;5.20;;;9.80;71.80;;;;;;5067670;28;20510;-75
2021/04/23 03:20:26;;;;;;;13.70;4.88;;;9.80;72.50;;;;;;5075771;28;20415;-74
2021/04/23 03:22:55;;;;;;;15.83;4.93;;;9.70;72.60;;;;;;5072726;28;20429;-74
2021/04/23 03:25:22;;;;;;;12.82;5.45;;;9.70;72.90;;;;;;5078781;28;20435;-74
2021/04/23 03:27:49;;;;;;;14.90;4.90;;;9.70;72.60;;;;;;5066723;28;20776;-74
2021/04/23 03:30:18;;;;;;;12.13;4.70;;;9.70;73.90;;;;;;5068182;28;20425;-76
2021/04/23 03:32:44;;;;;;;15.57;4.90;;;9.70;74.10;;;;;;5069520;28;20843;-76
2021/04/23 03:35:12;;;;;;;13.02;5.03;;;9.60;72.70;;;;;;5081003;28;20432;-76
2021/04/23 03:37:40;;;;;;;23.95;7.07;;;9.60;73.50;;;;;;5077139;28;21045;-74
2021/04/23 03:40:10;;;;;;;22.50;6.28;;;9.60;73.10;;;;;;5065933;28;21108;-76
2021/04/23 03:42:37;;;;;;;16.67;6.00;;;9.50;72.50;;;;;;5074511;28;20412;-75
2021/04/23 03:45:04;;;;;;;14.07;5.18;;;9.50;73.50;;;;;;5072296;28;20425;-75
2021/04/23 03:47:30;;;;;;;14.05;5.72;;;9.50;74.90;;;;;;5074238;28;20430;-74
2021/04/23 03:49:57;;;;;;;13.63;5.90;;;9.50;75.20;;;;;;5072596;28;20468;-75
2021/04/23 03:52:23;;;;;;;16.75;6.13;;;9.50;74.10;;;;;;5071111;28;20419;-74
2021/04/23 03:54:50;;;;;;;16.60;5.90;;;9.50;74.00;;;;;;5066792;28;20431;-73
2021/04/23 03:57:17;;;;;;;17.60;5.68;;;9.50;74.00;;;;;;5070466;28;20559;-76
2021/04/23 03:59:43;;;;;;;13.10;5.35;;;9.40;74.20;;;;;;5070464;28;20486;-74
2021/04/23 04:02:10;;;;;;;14.27;5.22;;;9.40;74.00;;;;;;5075726;28;20429;-73
2021/04/23 04:04:36;;;;;;;12.20;4.75;;;9.40;74.40;;;;;;5069650;28;20439;-74
2021/04/23 04:07:03;;;;;;;13.97;5.17;;;9.40;75.10;;;;;;5072791;28;20427;-75
2021/04/23 04:09:29;;;;;;;10.15;4.60;;;9.40;75.10;;;;;;5066940;28;20424;-74
2021/04/23 04:11:56;;;;;;;13.20;4.85;;;9.40;74.60;;;;;;5071458;28;20421;-73
2021/04/23 04:14:23;;;;;;;11.32;4.93;;;9.30;75.30;;;;;;5075726;28;20436;-75
2021/04/23 04:16:49;;;;;;;11.75;4.57;;;9.30;75.10;;;;;;5072909;28;20772;-74
2021/04/23 04:19:15;;;;;;;14.60;4.70;;;9.20;75.50;;;;;;5071512;28;20825;-74
2021/04/23 04:21:42;;;;;;;16.80;5.57;;;9.30;76.70;;;;;;5066083;28;20442;-74
2021/04/23 04:24:09;;;;;;;14.88;5.50;;;9.30;76.30;;;;;;5069765;28;20430;-73
2021/04/23 04:26:36;;;;;;;13.53;5.27;;;9.30;76.10;;;;;;5066576;28;20431;-74
2021/04/23 04:29:02;;;;;;;13.85;5.30;;;9.30;75.80;;;;;;5069706;28;20447;-74
2021/04/23 04:31:30;;;;;;;16.08;5.53;;;9.40;76.40;;;;;;5065691;28;20940;-74
2021/04/23 04:33:57;;;;;;;37.60;19.67;;;9.30;76.30;;;;;;5064362;28;20915;-74
2021/04/23 04:36:24;;;;;;;15.60;5.65;;;9.30;76.20;;;;;;5077660;28;20433;-74
2021/04/23 04:38:50;;;;;;;14.05;5.60;;;9.30;77.30;;;;;;5067777;28;20431;-75
2021/04/23 04:41:17;;;;;;;14.83;5.30;;;9.40;77.50;;;;;;5063654;28;20437;-74
2021/04/23 04:43:43;;;;;;;13.63;5.18;;;9.40;77.10;;;;;;5067075;28;20443;-73
2021/04/23 04:46:11;;;;;;;14.40;5.53;;;9.30;77.30;;;;;;5072617;28;20475;-75
2021/04/23 04:48:38;;;;;;;15.15;5.60;;;9.40;77.70;;;;;;5069007;28;20449;-74
2021/04/23 04:51:08;;;;;;;15.65;5.35;;;9.40;78.20;;;;;;5073373;28;20431;-75
2021/04/23 04:53:35;;;;;;;13.93;5.40;;;9.40;78.00;;;;;;5072353;28;20907;-74
2021/04/23 04:56:03;;;;;;;20.85;5.95;;;9.40;77.80;;;;;;5076730;28;20931;-77
2021/04/23 04:58:33;;;;;;;18.37;5.70;;;9.40;78.00;;;;;;5067587;28;20443;-76
2021/04/23 05:01:01;;;;;;;16.67;5.40;;;9.50;78.20;;;;;;5069513;28;21447;-75
2021/04/23 05:03:27;;;;;;;13.88;5.95;;;9.50;78.10;;;;;;5071304;28;20433;-74
2021/04/23 05:05:55;;;;;;;16.45;5.88;;;9.40;78.20;;;;;;5075066;28;20451;-76
2021/04/23 05:08:21;;;;;;;15.13;5.57;;;9.40;78.90;;;;;;5071245;28;20427;-76
2021/04/23 05:10:48;;;;;;;17.45;6.10;;;9.50;79.10;;;;;;5070462;28;20427;-77
2021/04/23 05:13:14;;;;;;;14.25;5.97;;;9.50;78.80;;;;;;5070761;28;22498;-76
2021/04/23 05:15:41;;;;;;;16.73;6.30;;;9.50;78.80;;;;;;5075222;28;20413;-76
2021/04/23 05:18:07;;;;;;;18.10;6.70;;;9.60;79.40;;;;;;5068775;28;20867;-78
2021/04/23 05:20:35;;;;;;;18.55;6.53;;;9.60;79.70;;;;;;5074737;28;20843;-75
2021/04/23 05:23:03;;;;;;;19.30;6.82;;;9.60;79.80;;;;;;5070215;28;20426;-77
2021/04/23 05:25:30;;;;;;;21.52;7.10;;;9.60;80.60;;;;;;5074398;28;20431;-76
2021/04/23 05:27:57;;;;;;;22.05;7.07;;;9.70;81.00;;;;;;5079803;28;20482;-74
2021/04/23 05:30:26;;;;;;;24.80;7.18;;;9.70;81.50;;;;;;5077577;28;20517;-76
2021/04/23 05:32:53;;;;;;;25.80;7.20;;;9.70;81.40;;;;;;5068872;28;20820;-73
2021/04/23 05:35:21;;;;;;;23.17;7.10;;;9.70;81.00;;;;;;5069766;28;20463;-73
2021/04/23 05:37:49;;;;;;;23.77;7.30;;;9.80;81.60;;;;;;5076257;28;20435;-76
2021/04/23 05:40:19;;;;;;;23.48;6.93;;;9.80;81.70;;;;;;5070475;28;20423;-74
2021/04/23 05:42:46;;;;;;;22.27;7.23;;;9.80;82.00;;;;;;5075786;28;20429;-76
2021/04/23 05:45:14;;;;;;;28.42;9.77;;;9.80;81.50;;;;;;5072638;28;20512;-75
2021/04/23 05:47:41;;;;;;;27.42;8.23;;;9.80;82.30;;;;;;5078517;28;20416;-76
2021/04/23 05:50:10;;;;;;;30.65;7.55;;;9.80;82.70;;;;;;5072093;28;20526;-76
2021/04/23 05:52:37;;;;;;;27.27;7.55;;;9.90;82.70;;;;;;5071989;28;21136;-78
2021/04/23 05:55:04;;;;;;;26.90;7.50;;;9.90;82.90;;;;;;5083610;28;20423;-74
2021/04/23 05:57:32;;;;;;;24.20;7.67;;;9.90;82.80;;;;;;5079895;28;20427;-75
2021/04/23 05:59:58;;;;;;;23.02;8.20;;;9.90;83.60;;;;;;5078930;28;20418;-74
2021/04/23 06:02:25;;;;;;;33.45;7.80;;;10.00;84.00;;;;;;5082696;28;20406;-75
2021/04/23 06:04:51;;;;;;;22.23;7.15;;;10.00;84.00;;;;;;5080343;28;20831;-75
2021/04/23 06:07:18;;;;;;;21.80;7.25;;;10.10;84.40;;;;;;5078730;28;20842;-75
2021/04/23 06:09:44;;;;;;;27.85;7.45;;;10.10;84.70;;;;;;5076287;28;20431;-74
2021/04/23 06:12:11;;;;;;;24.15;7.03;;;10.20;84.20;;;;;;5076625;28;20863;-76
2021/04/23 06:14:38;;;;;;;23.42;6.88;;;10.20;84.00;;;;;;5078221;28;20418;-74
2021/04/23 06:17:06;;;;;;;24.67;7.00;;;10.20;83.80;;;;;;5077753;28;20422;-75
2021/04/23 06:19:33;;;;;;;24.63;7.00;;;10.30;83.50;;;;;;5080422;28;20413;-74
2021/04/23 06:22:00;;;;;;;25.57;6.87;;;10.30;83.30;;;;;;5074558;28;20964;-76
2021/04/23 06:24:26;;;;;;;22.48;7.00;;;10.40;82.80;;;;;;5083507;28;20449;-76
2021/04/23 06:26:53;;;;;;;21.83;6.82;;;10.40;82.60;;;;;;5077751;28;20436;-76
2021/04/23 06:29:20;;;;;;;22.63;6.95;;;10.40;82.50;;;;;;5073152;28;20428;-75
2021/04/23 06:31:47;;;;;;;25.58;6.80;;;10.50;82.40;;;;;;5080775;28;20510;-76
2021/04/23 06:34:14;;;;;;;19.42;6.82;;;10.50;83.20;;;;;;5085153;28;20410;-73
2021/04/23 06:36:40;;;;;;;20.08;6.53;;;10.50;82.50;;;;;;5082734;28;20432;-76
2021/04/23 06:39:14;;;;;;;16.75;4.95;;;10.60;82.10;;;;;;5072684;28;20431;-76
2021/04/23 06:41:40;;;;;;;13.30;3.80;;;10.60;81.10;;;;;;5073537;28;20431;-78
2021/04/23 06:44:07;;;;;;;16.35;3.60;;;10.70;79.90;;;;;;5080000;28;20801;-76
2021/04/23 06:46:33;;;;;;;14.48;3.00;;;10.70;79.90;;;;;;5072381;28;20459;-77
2021/04/23 06:49:00;;;;;;;13.13;3.00;;;10.70;79.30;;;;;;5073879;28;20916;-75
2021/04/23 06:51:27;;;;;;;11.13;2.70;;;10.70;78.90;;;;;;5075972;28;20425;-75
2021/04/23 06:53:54;;;;;;;14.82;3.10;;;10.80;78.10;;;;;;5074997;28;20749;-75
2021/04/23 06:56:20;;;;;;;13.30;2.70;;;10.80;78.40;;;;;;5073054;28;20413;-75
2021/04/23 06:58:47;;;;;;;13.65;2.60;;;10.90;78.00;;;;;;5080810;28;20420;-74
2021/04/23 07:01:13;;;;;;;14.85;3.53;;;11.00;77.70;;;;;;5084167;28;20410;-76
2021/04/23 07:03:41;;;;;;;11.82;2.78;;;11.10;77.20;;;;;;5089447;28;20405;-76
2021/04/23 07:06:08;;;;;;;13.07;2.75;;;11.10;76.70;;;;;;5079839;28;20998;-75
2021/04/23 07:08:35;;;;;;;12.95;2.95;;;11.20;75.70;;;;;;5075216;28;20467;-75
2021/04/23 07:11:02;;;;;;;14.15;3.20;;;11.20;75.20;;;;;;5071998;28;20435;-76
2021/04/23 07:13:28;;;;;;;10.93;2.80;;;11.20;75.00;;;;;;5072541;28;20461;-76
2021/04/23 07:15:55;;;;;;;19.48;4.90;;;11.20;75.50;;;;;;5067757;28;20415;-74
2021/04/23 07:18:21;;;;;;;13.60;4.30;;;11.30;75.60;;;;;;5064300;28;20427;-75
2021/04/23 07:20:48;;;;;;;19.13;4.03;;;11.20;75.90;;;;;;5067964;28;20439;-74
2021/04/23 07:23:15;;;;;;;12.23;3.28;;;11.20;76.30;;;;;;5067052;28;20435;-74
2021/04/23 07:25:42;;;;;;;14.52;3.70;;;11.20;76.00;;;;;;5072874;28;20424;-74
2021/04/23 07:28:08;;;;;;;13.80;3.25;;;11.10;76.30;;;;;;5068994;28;20989;-73
2021/04/23 07:30:37;;;;;;;12.77;3.67;;;11.20;76.40;;;;;;5076286;28;20915;-75
2021/04/23 07:33:06;;;;;;;13.52;3.17;;;11.20;76.30;;;;;;5065824;28;20429;-75
2021/04/23 07:35:33;;;;;;;17.73;3.42;;;11.20;76.20;;;;;;5066590;28;20438;-74
2021/04/23 07:38:00;;;;;;;13.52;3.60;;;11.20;76.10;;;;;;5077600;28;20579;-74
2021/04/23 07:40:29;;;;;;;12.95;3.53;;;11.20;75.90;;;;;;5072089;28;20427;-74
2021/04/23 07:42:55;;;;;;;16.60;6.70;;;11.20;75.60;;;;;;5067117;28;20438;-75
2021/04/23 07:45:22;;;;;;;16.10;4.20;;;11.20;75.90;;;;;;5069853;28;20431;-74
2021/04/23 07:47:48;;;;;;;14.37;3.43;;;11.20;76.30;;;;;;5069483;28;20462;-73
2021/04/23 07:50:17;;;;;;;14.05;3.05;;;11.20;76.10;;;;;;5070388;28;20428;-72
2021/04/23 07:52:44;;;;;;;14.55;3.60;;;11.20;75.80;;;;;;5074687;28;20962;-74
2021/04/23 07:55:12;;;;;;;14.50;3.83;;;11.30;75.20;;;;;;5069422;28;20425;-75
2021/04/23 07:57:41;;;;;;;15.47;3.50;;;11.30;75.00;;;;;;5074077;28;20428;-74
2021/04/23 08:00:09;;;;;;;12.77;3.60;;;11.30;75.30;;;;;;5069560;28;20514;-75
2021/04/23 08:02:42;;;;;;;13.60;3.70;;;11.40;76.00;;;;;;5055949;28;20762;-75
2021/04/23 08:05:11;;;;;;;14.38;3.78;;;11.40;75.90;;;;;;5067517;28;20419;-76
2021/04/23 08:07:37;;;;;;;17.50;4.30;;;11.40;75.60;;;;;;5068317;28;20492;-75
2021/04/23 08:10:04;;;;;;;16.95;4.43;;;11.50;75.90;;;;;;5072488;28;20422;-75
2021/04/23 08:12:31;;;;;;;15.50;4.38;;;11.60;75.60;;;;;;5082453;28;20864;-75
2021/04/23 08:14:58;;;;;;;16.33;4.20;;;11.60;74.90;;;;;;5067954;28;20438;-72
2021/04/23 08:17:25;;;;;;;20.42;4.45;;;11.70;74.60;;;;;;5069252;28;20481;-74
2021/04/23 08:19:51;;;;;;;14.70;4.73;;;11.70;74.70;;;;;;5063721;28;20423;-75
2021/04/23 08:22:18;;;;;;;15.48;4.43;;;11.80;74.60;;;;;;5071696;28;20430;-74
2021/04/23 08:24:44;;;;;;;15.43;4.35;;;11.80;73.90;;;;;;5079750;28;20423;-74
2021/04/23 08:27:10;;;;;;;20.42;4.88;;;11.90;73.90;;;;;;5076134;28;20418;-74
2021/04/23 08:29:37;;;;;;;15.65;4.47;;;12.00;73.80;;;;;;5070118;28;20430;-76
2021/04/23 08:32:05;;;;;;;15.52;4.22;;;12.10;73.50;;;;;;5071476;28;20445;-74
2021/04/23 08:34:31;;;;;;;17.85;4.78;;;12.10;73.60;;;;;;5065368;28;20477;-74
2021/04/23 08:36:57;;;;;;;16.75;4.70;;;12.20;74.10;;;;;;5065588;28;20822;-74
2021/04/23 08:39:24;;;;;;;16.58;4.20;;;12.20;72.80;;;;;;5072325;28;20918;-74
2021/04/23 08:41:50;;;;;;;15.23;4.68;;;12.30;71.50;;;;;;5072870;28;20448;-75
2021/04/23 08:44:16;;;;;;;16.33;4.47;;;12.30;71.20;;;;;;5068805;28;20423;-77
2021/04/23 08:46:43;;;;;;;13.05;4.10;;;12.30;71.60;;;;;;5072664;28;20453;-75
2021/04/23 08:49:11;;;;;;;18.45;4.03;;;12.40;71.30;;;;;;5062703;28;20446;-74
2021/04/23 08:51:40;;;;;;;15.40;4.07;;;12.40;70.70;;;;;;5073777;28;20432;-75
2021/04/23 08:54:06;;;;;;;14.60;4.38;;;12.50;70.40;;;;;;5064779;28;20448;-73
2021/04/23 08:56:33;;;;;;;17.13;4.57;;;12.50;70.40;;;;;;5071323;28;20823;-73
2021/04/23 08:58:59;;;;;;;14.18;4.57;;;12.50;70.50;;;;;;5070287;28;20912;-74
2021/04/23 09:01:26;;;;;;;17.10;4.47;;;12.60;69.80;;;;;;5071397;28;20484;-75
2021/04/23 09:03:52;;;;;;;11.07;3.80;;;12.70;70.20;;;;;;5073275;28;20417;-76
2021/04/23 09:06:24;;;;;;;15.93;4.45;;;12.70;69.20;;;;;;5068789;28;20420;-76
2021/04/23 09:09:07;;;;;;;15.73;4.78;;;12.70;68.90;;;;;;5070012;28;20439;-76
2021/04/23 09:11:35;;;;;;;17.65;4.90;;;12.80;69.40;;;;;;5069825;28;20539;-74
2021/04/23 09:14:04;;;;;;;11.70;4.10;;;12.90;69.10;;;;;;5067982;28;20423;-74
2021/04/23 09:16:53;;;;;;;11.98;3.80;;;12.90;68.60;;;;;;5069426;28;21304;-75
2021/04/23 09:19:23;;;;;;;13.45;3.80;;;12.90;68.00;;;;;;5071986;28;20920;-75
2021/04/23 09:21:53;;;;;;;17.25;4.65;;;12.90;68.60;;;;;;5081119;28;20423;-76
2021/04/23 09:24:25;;;;;;;12.23;3.80;;;13.00;67.70;;;;;;5070411;28;20426;-76
2021/04/23 09:26:52;;;;;;;14.97;3.20;;;13.00;67.30;;;;;;5071383;28;20626;-76
2021/04/23 09:29:33;;;;;;;12.93;3.00;;;13.10;67.20;;;;;;5065926;28;20419;-74
2021/04/23 09:32:09;;;;;;;13.35;3.40;;;13.10;67.70;;;;;;5076418;28;20426;-76
2021/04/23 09:34:46;;;;;;;12.02;2.92;;;13.20;68.00;;;;;;5074267;28;20923;-74
2021/04/23 09:37:14;;;;;;;11.68;2.80;;;13.30;67.10;;;;;;5083203;28;20421;-73
2021/04/23 09:39:40;;;;;;;10.98;3.20;;;13.40;66.50;;;;;;5068550;28;20423;-74
2021/04/23 09:42:10;;;;;;;14.07;3.30;;;13.50;65.30;;;;;;5074579;28;20421;-76
2021/04/23 09:44:39;;;;;;;15.18;3.30;;;13.60;65.40;;;;;;5067348;28;20435;-75
2021/04/23 09:47:10;;;;;;;15.57;2.90;;;13.70;65.70;;;;;;5079019;28;20802;-73
2021/04/23 09:49:37;;;;;;;13.20;2.72;;;13.80;65.70;;;;;;5073131;28;20421;-76
2021/04/23 09:52:06;;;;;;;11.13;2.70;;;13.80;65.10;;;;;;5070360;28;20426;-75
2021/04/23 09:54:34;;;;;;;11.05;2.78;;;13.90;63.90;;;;;;5069411;28;20481;-75
2021/04/23 09:57:02;;;;;;;11.73;2.75;;;14.00;63.80;;;;;;5076482;28;20784;-74
2021/04/23 09:59:29;;;;;;;11.18;2.95;;;14.10;63.80;;;;;;5072482;28;20456;-76
2021/04/23 10:02:01;;;;;;;11.52;3.00;;;14.20;63.50;;;;;;5066007;28;20438;-75
2021/04/23 10:04:30;;;;;;;12.35;2.83;;;14.20;62.80;;;;;;5078711;28;20782;-74
2021/04/23 10:07:08;;;;;;;12.77;2.80;;;14.30;62.50;;;;;;5072344;28;20435;-75
2021/04/23 10:09:42;;;;;;;15.13;2.90;;;14.30;61.40;;;;;;5068707;28;20423;-73
2021/04/23 10:12:09;;;;;;;17.17;3.22;;;14.30;61.80;;;;;;5069295;28;20459;-73
2021/04/23 10:14:35;;;;;;;15.55;3.03;;;14.30;62.10;;;;;;5076493;28;20423;-76
2021/04/23 10:17:02;;;;;;;12.50;3.17;;;14.40;61.80;;;;;;5074071;28;20423;-75
2021/04/23 10:19:28;;;;;;;10.60;2.60;;;14.50;61.80;;;;;;5066817;28;20426;-74
2021/04/23 10:21:56;;;;;;;10.77;2.60;;;14.50;61.90;;;;;;5079457;28;20456;-73
2021/04/23 10:24:22;;;;;;;8.32;2.38;;;14.60;61.30;;;;;;5072064;28;20422;-74
2021/04/23 10:26:52;;;;;;;11.52;2.95;;;14.60;60.90;;;;;;5077115;28;20448;-74
2021/04/23 10:29:19;;;;;;;10.85;2.85;;;14.80;61.10;;;;;;5072454;28;20493;-75
2021/04/23 10:31:45;;;;;;;12.35;3.03;;;14.80;61.10;;;;;;5072866;28;20419;-74
2021/04/23 10:34:12;;;;;;;13.73;4.00;;;14.90;59.90;;;;;;5073040;28;20435;-74
2021/04/23 10:36:39;;;;;;;14.43;3.58;;;14.80;60.70;;;;;;5071534;28;20438;-74
2021/04/23 10:39:07;;;;;;;13.68;3.30;;;14.90;61.80;;;;;;5078948;28;20427;-75
2021/04/23 10:41:35;;;;;;;13.25;3.40;;;14.90;61.80;;;;;;5068340;28;20789;-75
2021/04/23 10:44:03;;;;;;;12.38;2.90;;;15.00;61.20;;;;;;5074567;28;20902;-75
2021/04/23 10:46:30;;;;;;;12.03;3.27;;;15.00;61.40;;;;;;5071582;28;20437;-74
2021/04/23 10:49:05;;;;;;;15.70;3.47;;;14.90;60.80;;;;;;5072271;28;20430;-74
2021/04/23 10:51:32;;;;;;;12.43;2.80;;;14.90;61.00;;;;;;5071832;28;20442;-73
2021/04/23 10:54:08;;;;;;;13.40;3.00;;;14.80;60.10;;;;;;5073904;28;20821;-74
2021/04/23 10:56:36;;;;;;;11.02;2.90;;;14.80;61.30;;;;;;5075107;28;20429;-74
2021/04/23 10:59:07;;;;;;;12.60;3.10;;;14.80;62.20;;;;;;5069516;28;20425;-74
2021/04/23 11:01:36;;;;;;;13.60;2.92;;;14.80;62.80;;;;;;5073468;28;20462;-74
2021/04/23 11:04:13;;;;;;;15.48;2.88;;;14.80;62.70;;;;;;5075396;28;20808;-74
2021/04/23 11:06:45;;;;;;;14.48;3.10;;;14.70;62.30;;;;;;5073898;28;20441;-75
2021/04/23 11:09:15;;;;;;;10.73;3.30;;;14.70;62.30;;;;;;5069832;28;20544;-74
2021/04/23 11:12:03;;;;;;;15.05;3.40;;;14.70;62.40;;;;;;5072118;28;20431;-74
2021/04/23 11:14:32;;;;;;;11.27;3.00;;;14.80;62.40;;;;;;5072664;28;20441;-74
2021/04/23 11:17:25;;;;;;;13.68;3.65;;;14.90;62.60;;;;;;5073112;28;20913;-75
2021/04/23 11:19:52;;;;;;;13.73;3.08;;;15.00;62.90;;;;;;5068797;28;20425;-74
2021/04/23 11:22:20;;;;;;;11.80;3.10;;;15.20;61.30;;;;;;5070234;28;20683;-74
2021/04/23 11:25:06;;;;;;;11.63;2.90;;;15.30;60.70;;;;;;5078717;28;20475;-74
2021/04/23 11:27:33;;;;;;;17.40;5.60;;;15.30;60.10;;;;;;5073449;28;20436;-74
2021/04/23 11:30:09;;;;;;;15.52;3.60;;;15.40;61.60;;;;;;5074531;28;20415;-74
2021/04/23 11:32:51;;;;;;;14.68;3.40;;;15.50;60.50;;;;;;5072771;28;20427;-75
2021/04/23 11:35:19;;;;;;;15.35;3.70;;;15.70;59.90;;;;;;5068823;28;20436;-75
2021/04/23 11:37:51;;;;;;;14.88;3.50;;;15.70;58.80;;;;;;5075578;28;20429;-75
2021/04/23 11:40:20;;;;;;;14.25;3.38;;;15.80;59.10;;;;;;5074343;28;20533;-75
2021/04/23 11:42:48;;;;;;;14.60;3.80;;;15.90;58.80;;;;;;5080079;28;20427;-75
2021/04/23 11:45:17;;;;;;;14.77;3.38;;;16.10;58.50;;;;;;5069720;28;20456;-74
2021/04/23 11:47:44;;;;;;;13.30;3.42;;;16.20;57.90;;;;;;5072672;28;20913;-74
2021/04/23 11:50:15;;;;;;;11.88;3.33;;;16.30;57.40;;;;;;5075559;28;20513;-74
2021/04/23 11:52:44;;;;;;;11.63;3.28;;;16.40;56.50;;;;;;5075531;28;20438;-74
2021/04/23 11:55:15;;;;;;;12.98;3.53;;;16.50;55.90;;;;;;5074146;28;20450;-75
2021/04/23 11:57:43;;;;;;;10.15;3.30;;;16.60;56.60;;;;;;5079121;28;20563;-73
2021/04/23 12:00:12;;;;;;;11.93;3.17;;;16.70;56.20;;;;;;5081681;28;20449;-75
2021/04/23 12:02:49;;;;;;;12.27;3.25;;;16.80;54.90;;;;;;5073057;28;20924;-74
2021/04/23 12:05:31;;;;;;;13.70;3.42;;;16.90;55.40;;;;;;5063842;28;20432;-74
2021/04/23 12:07:59;;;;;;;15.05;3.53;;;17.00;55.20;;;;;;5072820;28;20429;-74
2021/04/23 12:10:27;;;;;;;12.48;3.20;;;17.10;54.80;;;;;;5072744;28;20514;-75
2021/04/23 12:12:53;;;;;;;13.57;3.30;;;17.20;54.50;;;;;;5069914;28;20419;-74
2021/04/23 12:15:22;;;;;;;12.73;3.50;;;17.20;54.80;;;;;;5072756;28;20434;-75
2021/04/23 12:17:50;;;;;;;11.15;3.47;;;17.40;54.50;;;;;;5072233;28;20482;-75
2021/04/23 12:20:19;;;;;;;9.27;3.17;;;17.50;54.20;;;;;;5073012;28;20419;-75
2021/04/23 12:22:46;;;;;;;10.90;2.90;;;17.70;52.90;;;;;;5076082;28;20755;-73
2021/04/23 12:25:27;;;;;;;11.05;3.22;;;17.90;52.30;;;;;;5069155;28;20427;-74
2021/04/23 12:27:54;;;;;;;12.27;3.35;;;18.10;51.70;;;;;;5074576;28;20780;-74
2021/04/23 12:30:31;;;;;;;10.67;3.00;;;18.30;50.60;;;;;;5072666;28;20419;-75
2021/04/23 12:32:59;;;;;;;12.20;3.10;;;18.50;50.30;;;;;;5075582;28;20431;-74
2021/04/23 12:35:37;;;;;;;10.23;3.00;;;18.80;49.90;;;;;;5070680;28;20817;-74
2021/04/23 12:38:05;;;;;;;13.23;3.65;;;19.00;49.60;;;;;;5067394;28;20428;-76
2021/04/23 12:40:33;;;;;;;11.90;3.60;;;19.20;49.30;;;;;;5074648;28;20443;-75
2021/04/23 12:43:11;;;;;;;13.02;3.30;;;19.30;48.50;;;;;;5076530;28;20430;-76